createdAt,value
2019-05-20T00:01:08.180Z,99200.84
2019-05-20T00:03:35.571Z,99202.11
2019-05-20T00:06:02.989Z,99200.93
2019-05-20T00:08:30.205Z,99207.69
2019-05-20T00:10:57.489Z,99199.75
2019-05-20T00:13:24.851Z,99194.77
2019-05-20T00:15:52.163Z,99188.66
2019-05-20T00:18:19.506Z,99196.23
2019-05-20T00:20:46.633Z,99194.41
2019-05-20T00:23:13.914Z,99199.54
2019-05-20T00:25:41.328Z,99207.45
2019-05-20T00:28:08.578Z,99203.94
2019-05-20T00:30:36.008Z,99204.48
2019-05-20T00:33:03.421Z,99199.89
2019-05-20T00:35:30.859Z,99197.33
2019-05-20T00:38:00.261Z,99189.81
2019-05-20T00:40:27.520Z,99196.08
2019-05-20T00:42:54.692Z,99201.31
2019-05-20T00:45:22.059Z,99194.27
2019-05-20T00:47:49.211Z,99193.19
2019-05-20T00:50:16.786Z,99184.58
2019-05-20T00:52:44.258Z,99183.76
2019-05-20T00:55:27.875Z,99193.16
2019-05-20T00:57:55.226Z,99181.47
2019-05-20T01:00:23.406Z,99178.20
2019-05-20T01:02:56.773Z,99176.53
2019-05-20T01:05:20.197Z,99180.64
2019-05-20T01:07:47.795Z,99177.91
2019-05-20T01:10:15.766Z,99164.39
2019-05-20T01:12:43.151Z,99163.70
2019-05-20T01:15:10.980Z,99164.47
2019-05-20T01:17:38.290Z,99165.32
2019-05-20T01:20:06.415Z,99172.23
2019-05-20T01:22:36.991Z,99167.03
2019-05-20T01:25:04.785Z,99166.25
2019-05-20T01:27:33.089Z,99167.63
2019-05-20T01:30:00.463Z,99157.23
2019-05-20T01:32:27.720Z,99155.05
2019-05-20T01:34:55.089Z,99146.55
2019-05-20T01:37:22.402Z,99157.08
2019-05-20T01:39:49.660Z,99149.56
2019-05-20T01:42:16.923Z,99143.75
2019-05-20T01:44:44.319Z,99144.25
2019-05-20T01:47:16.537Z,99144.50
2019-05-20T01:49:44.493Z,99148.39
2019-05-20T01:52:12.613Z,99146.50
2019-05-20T01:54:43.458Z,99140.42
2019-05-20T01:57:10.661Z,99140.75
2019-05-20T01:59:37.861Z,99134.47
2019-05-20T02:02:05.217Z,99136.66
2019-05-20T02:04:33.380Z,99138.33
2019-05-20T02:07:02.248Z,99146.03
2019-05-20T02:09:30.650Z,99158.64
2019-05-20T02:11:58.034Z,99161.88
2019-05-20T02:14:28.001Z,99157.83
2019-05-20T02:16:56.018Z,99161.13
2019-05-20T02:19:23.879Z,99161.13
2019-05-20T02:21:52.508Z,99164.33
2019-05-20T02:24:20.590Z,99164.66
2019-05-20T02:26:47.860Z,99159.46
2019-05-20T02:29:15.028Z,99161.41
2019-05-20T02:31:42.208Z,99160.36
2019-05-20T02:34:09.567Z,99163.42
2019-05-20T02:36:36.843Z,99158.73
2019-05-20T02:39:05.370Z,99163.98
2019-05-20T02:41:32.846Z,99154.34
2019-05-20T02:44:00.326Z,99146.70
2019-05-20T02:46:27.597Z,99162.37
2019-05-20T02:48:54.834Z,99168.67
2019-05-20T02:51:32.254Z,99170.59
2019-05-20T02:54:03.526Z,99165.13
2019-05-20T02:56:32.104Z,99169.00
2019-05-20T02:59:04.290Z,99164.87
2019-05-20T03:01:34.008Z,99165.44
2019-05-20T03:04:11.524Z,99162.97
2019-05-20T03:06:33.027Z,99171.72
2019-05-20T03:09:00.490Z,99170.64
2019-05-20T03:11:27.748Z,99163.78
2019-05-20T03:13:55.036Z,99164.36
2019-05-20T03:16:22.188Z,99155.03
2019-05-20T03:18:49.604Z,99161.06
2019-05-20T03:21:16.829Z,99150.09
2019-05-20T03:23:44.085Z,99155.56
2019-05-20T03:26:11.484Z,99156.69
2019-05-20T03:28:43.099Z,99157.84
2019-05-20T03:31:10.569Z,99158.92
2019-05-20T03:33:37.829Z,99159.17
2019-05-20T03:36:05.461Z,99155.08
2019-05-20T03:38:32.803Z,99162.45
2019-05-20T03:41:00.077Z,99163.02
2019-05-20T03:43:27.378Z,99164.96
2019-05-20T03:45:54.806Z,99165.47
2019-05-20T03:48:22.170Z,99161.02
2019-05-20T03:50:49.633Z,99171.77
2019-05-20T03:53:17.137Z,99168.47
2019-05-20T03:55:44.321Z,99168.20
2019-05-20T03:58:13.677Z,99174.20
2019-05-20T04:00:43.804Z,99170.03
2019-05-20T04:03:11.909Z,99168.64
2019-05-20T04:05:39.815Z,99167.56
2019-05-20T04:08:07.303Z,99161.50
2019-05-20T04:10:34.555Z,99173.58
2019-05-20T04:13:01.962Z,99176.81
2019-05-20T04:15:29.429Z,99176.23
2019-05-20T04:17:56.800Z,99169.38
2019-05-20T04:20:24.155Z,99165.50
2019-05-20T04:22:51.524Z,99172.01
2019-05-20T04:25:18.901Z,99168.48
2019-05-20T04:27:46.343Z,99168.70
2019-05-20T04:30:18.691Z,99162.37
2019-05-20T04:32:44.138Z,99167.54
2019-05-20T04:35:21.974Z,99163.09
2019-05-20T04:37:40.866Z,99161.36
2019-05-20T04:40:09.133Z,99167.07
2019-05-20T04:42:36.739Z,99157.09
2019-05-20T04:45:06.413Z,99156.19
2019-05-20T04:47:33.599Z,99156.06
2019-05-20T04:50:00.838Z,99160.36
2019-05-20T04:52:28.107Z,99153.61
2019-05-20T04:54:55.399Z,99161.16
2019-05-20T04:57:22.663Z,99151.29
2019-05-20T04:59:50.009Z,99156.33
2019-05-20T05:02:17.233Z,99159.52
2019-05-20T05:04:44.478Z,99159.86
2019-05-20T05:07:11.962Z,99165.21
2019-05-20T05:09:39.345Z,99169.66
2019-05-20T05:12:06.592Z,99166.36
2019-05-20T05:14:34.054Z,99166.23
2019-05-20T05:17:01.429Z,99170.39
2019-05-20T05:19:29.101Z,99170.56
2019-05-20T05:21:56.458Z,99171.92
2019-05-20T05:24:23.908Z,99169.03
2019-05-20T05:26:51.481Z,99163.44
2019-05-20T05:29:18.992Z,99172.13
2019-05-20T05:31:46.458Z,99176.02
2019-05-20T05:34:13.954Z,99185.97
2019-05-20T05:36:41.427Z,99179.95
2019-05-20T05:39:08.850Z,99181.42
2019-05-20T05:41:36.157Z,99177.12
2019-05-20T05:44:03.695Z,99174.72
2019-05-20T05:46:30.856Z,99173.35
2019-05-20T05:48:58.103Z,99180.61
2019-05-20T05:51:25.573Z,99179.41
2019-05-20T05:53:52.873Z,99177.13
2019-05-20T05:56:20.129Z,99172.02
2019-05-20T05:58:50.788Z,99169.77
2019-05-20T06:01:18.252Z,99177.06
2019-05-20T06:03:45.771Z,99182.28
2019-05-20T06:06:13.707Z,99188.88
2019-05-20T06:08:41.098Z,99198.64
2019-05-20T06:11:08.487Z,99198.48
2019-05-20T06:13:35.888Z,99201.39
2019-05-20T06:16:03.360Z,99196.45
2019-05-20T06:18:30.530Z,99198.88
2019-05-20T06:20:57.919Z,99202.94
2019-05-20T06:23:25.330Z,99205.58
2019-05-20T06:25:52.613Z,99200.28
2019-05-20T06:28:20.057Z,99205.88
2019-05-20T06:30:47.812Z,99208.11
2019-05-20T06:33:15.173Z,99213.65
2019-05-20T06:35:42.871Z,99222.92
2019-05-20T06:38:32.924Z,99219.70
2019-05-20T06:41:00.328Z,99225.43
2019-05-20T06:43:28.063Z,99229.25
2019-05-20T06:45:55.499Z,99227.72
2019-05-20T06:48:22.904Z,99226.18
2019-05-20T06:50:57.541Z,99225.60
2019-05-20T06:53:24.964Z,99227.98
2019-05-20T06:55:52.370Z,99224.13
2019-05-20T06:58:19.653Z,99228.13
2019-05-20T07:00:47.142Z,99219.64
2019-05-20T07:03:14.523Z,99224.20
2019-05-20T07:05:41.817Z,99227.88
2019-05-20T07:08:09.323Z,99224.53
2019-05-20T07:10:36.791Z,99221.67
2019-05-20T07:13:04.415Z,99222.45
2019-05-20T07:15:31.864Z,99223.77
2019-05-20T07:17:59.495Z,99222.86
2019-05-20T07:20:26.646Z,99227.83
2019-05-20T07:22:56.238Z,99217.53
2019-05-20T07:25:23.978Z,99225.77
2019-05-20T07:27:51.820Z,99217.72
2019-05-20T07:30:19.395Z,99210.16
2019-05-20T07:32:46.566Z,99214.08
2019-05-20T07:35:28.783Z,99218.83
2019-05-20T07:37:43.340Z,99215.84
2019-05-20T07:40:12.569Z,99218.47
2019-05-20T07:42:40.047Z,99224.61
2019-05-20T07:45:08.166Z,99219.14
2019-05-20T07:47:35.771Z,99215.46
2019-05-20T07:50:03.675Z,99217.36
2019-05-20T07:52:31.255Z,99209.49
2019-05-20T07:54:59.637Z,99218.91
2019-05-20T07:57:33.405Z,99213.43
2019-05-20T08:00:01.066Z,99221.50
2019-05-20T08:02:29.242Z,99222.27
2019-05-20T08:04:56.633Z,99214.66
2019-05-20T08:07:27.857Z,99218.97
2019-05-20T08:09:53.330Z,99217.80
2019-05-20T08:12:20.821Z,99219.45
2019-05-20T08:14:51.179Z,99222.86
2019-05-20T08:17:19.774Z,99221.20
2019-05-20T08:19:47.342Z,99223.61
2019-05-20T08:22:14.838Z,99216.09
2019-05-20T08:24:42.563Z,99221.40
2019-05-20T08:27:10.286Z,99223.66
2019-05-20T08:29:37.919Z,99223.67
2019-05-20T08:32:08.189Z,99228.41
2019-05-20T08:34:36.310Z,99218.58
2019-05-20T08:37:04.451Z,99219.66
2019-05-20T08:39:31.757Z,99222.55
2019-05-20T08:42:00.389Z,99226.96
2019-05-20T08:44:27.672Z,99218.63
2019-05-20T08:46:55.016Z,99224.81
2019-05-20T08:49:22.675Z,99225.99
2019-05-20T08:51:50.104Z,99227.66
2019-05-20T08:54:17.654Z,99223.63
2019-05-20T08:56:44.852Z,99217.05
2019-05-20T08:59:12.307Z,99213.59
2019-05-20T09:01:39.774Z,99216.53
2019-05-20T09:04:07.230Z,99215.80
2019-05-20T09:06:34.585Z,99210.45
2019-05-20T09:09:04.614Z,99212.45
2019-05-20T09:11:32.027Z,99215.05
2019-05-20T09:13:59.209Z,99218.01
2019-05-20T09:16:26.706Z,99214.74
2019-05-20T09:18:54.245Z,99217.09
2019-05-20T09:21:21.656Z,99221.08
2019-05-20T09:23:49.213Z,99220.41
2019-05-20T09:26:16.705Z,99220.00
2019-05-20T09:28:44.073Z,99212.30
2019-05-20T09:31:12.377Z,99218.48
2019-05-20T09:33:40.216Z,99214.58
2019-05-20T09:36:07.658Z,99223.20
2019-05-20T09:38:37.131Z,99222.73
2019-05-20T09:41:04.498Z,99221.11
2019-05-20T09:43:32.164Z,99217.05
2019-05-20T09:46:07.840Z,99218.25
2019-05-20T09:48:28.793Z,99221.17
2019-05-20T09:50:56.159Z,99221.41
2019-05-20T09:53:23.413Z,99223.90
2019-05-20T09:55:50.752Z,99226.95
2019-05-20T09:58:18.214Z,99224.88
2019-05-20T10:00:48.373Z,99229.23
2019-05-20T10:03:15.791Z,99224.71
2019-05-20T10:05:43.954Z,99223.48
2019-05-20T10:08:14.109Z,99230.52
2019-05-20T10:10:44.257Z,99228.50
2019-05-20T10:13:11.708Z,99231.80
2019-05-20T10:15:39.464Z,99232.80
2019-05-20T10:18:06.978Z,99238.80
2019-05-20T10:20:34.449Z,99244.84
2019-05-20T10:23:01.937Z,99244.62
2019-05-20T10:25:29.484Z,99251.87
2019-05-20T10:27:57.834Z,99254.60
2019-05-20T10:30:27.694Z,99258.64
2019-05-20T10:32:55.106Z,99265.80
2019-05-20T10:35:22.707Z,99260.23
2019-05-20T10:37:50.375Z,99267.19
2019-05-20T10:40:18.277Z,99270.92
2019-05-20T10:42:46.170Z,99272.90
2019-05-20T10:45:13.813Z,99272.67
2019-05-20T10:47:41.228Z,99274.88
2019-05-20T10:50:08.925Z,99273.95
2019-05-20T10:52:36.370Z,99277.87
2019-05-20T10:55:04.653Z,99281.70
2019-05-20T10:57:32.053Z,99280.19
2019-05-20T11:00:01.282Z,99286.52
2019-05-20T11:02:31.217Z,99288.16
2019-05-20T11:05:00.564Z,99288.70
2019-05-20T11:07:28.134Z,99292.76
2019-05-20T11:09:55.549Z,99290.33
2019-05-20T11:12:22.938Z,99287.29
2019-05-20T11:14:50.216Z,99289.52
2019-05-20T11:17:17.770Z,99290.80
2019-05-20T11:19:45.236Z,99285.83
2019-05-20T11:22:14.363Z,99281.62
2019-05-20T11:24:41.897Z,99278.50
2019-05-20T11:27:09.487Z,99281.01
2019-05-20T11:29:36.877Z,99271.36
2019-05-20T11:32:04.386Z,99262.56
2019-05-20T11:34:31.698Z,99260.00
2019-05-20T11:36:59.140Z,99260.23
2019-05-20T11:39:33.119Z,99262.68
2019-05-20T11:41:55.754Z,99257.56
2019-05-20T11:44:23.182Z,99253.06
2019-05-20T11:46:50.398Z,99251.41
2019-05-20T11:49:17.905Z,99260.00
2019-05-20T11:51:45.534Z,99247.69
2019-05-20T11:54:13.031Z,99253.38
2019-05-20T11:56:40.322Z,99243.37
2019-05-20T11:59:07.757Z,99243.67
2019-05-20T12:01:35.569Z,99239.42
2019-05-20T12:04:05.514Z,99246.59
2019-05-20T12:06:33.057Z,99243.70
2019-05-20T12:09:00.253Z,99250.84
2019-05-20T12:11:27.724Z,99244.95
2019-05-20T12:13:55.228Z,99246.98
2019-05-20T12:16:22.971Z,99242.20
2019-05-20T12:18:53.376Z,99245.73
2019-05-20T12:21:23.090Z,99239.87
2019-05-20T12:23:50.283Z,99238.84
2019-05-20T12:26:17.711Z,99233.66
2019-05-20T12:28:45.339Z,99233.33
2019-05-20T12:31:16.942Z,99236.52
2019-05-20T12:33:44.295Z,99234.61
2019-05-20T12:36:12.058Z,99237.68
2019-05-20T12:38:39.372Z,99230.84
2019-05-20T12:41:06.864Z,99228.85
2019-05-20T12:43:34.073Z,99225.31
2019-05-20T12:46:01.415Z,99232.78
2019-05-20T12:48:28.777Z,99231.25
2019-05-20T12:50:56.054Z,99236.00
2019-05-20T12:53:23.311Z,99244.72
2019-05-20T12:55:50.775Z,99242.04
2019-05-20T12:58:18.273Z,99241.61
2019-05-20T13:00:45.941Z,99254.60
2019-05-20T13:03:13.169Z,99247.56
2019-05-20T13:05:40.559Z,99253.83
2019-05-20T13:08:07.884Z,99248.06
2019-05-20T13:10:36.951Z,99249.80
2019-05-20T13:13:07.472Z,99252.19
2019-05-20T13:15:35.643Z,99250.63
2019-05-20T13:18:03.247Z,99239.71
2019-05-20T13:20:30.661Z,99240.25
2019-05-20T13:22:58.367Z,99229.97
2019-05-20T13:25:25.953Z,99226.84
2019-05-20T13:27:53.116Z,99222.73
2019-05-20T13:30:22.945Z,99227.48
2019-05-20T13:32:50.331Z,99226.78
2019-05-20T13:35:18.556Z,99220.38
2019-05-20T13:37:46.364Z,99218.21
2019-05-20T13:40:14.209Z,99219.11
2019-05-20T13:42:41.483Z,99208.41
2019-05-20T13:45:22.709Z,99209.33
2019-05-20T13:47:50.399Z,99205.98
2019-05-20T13:50:26.115Z,99215.53
2019-05-20T13:52:53.376Z,99214.08
2019-05-20T13:55:20.965Z,99225.55
2019-05-20T13:57:48.254Z,99235.00
2019-05-20T14:00:16.050Z,99233.81
2019-05-20T14:02:44.156Z,99240.09
2019-05-20T14:05:16.892Z,99241.43
2019-05-20T14:07:44.500Z,99238.11
2019-05-20T14:10:12.517Z,99237.94
2019-05-20T14:12:39.900Z,99236.15
2019-05-20T14:15:15.020Z,99240.45
2019-05-20T14:17:45.972Z,99244.63
2019-05-20T14:20:22.105Z,99251.36
2019-05-20T14:22:59.372Z,99254.02
2019-05-20T14:25:29.243Z,99253.11
2019-05-20T14:27:56.468Z,99266.33
2019-05-20T14:30:24.152Z,99276.29
2019-05-20T14:32:54.514Z,99282.67
2019-05-20T14:35:21.861Z,99275.70
2019-05-20T14:37:49.966Z,99275.36
2019-05-20T14:40:17.680Z,99272.92
2019-05-20T14:42:45.257Z,99266.72
2019-05-20T14:45:12.818Z,99272.63
2019-05-20T14:47:41.589Z,99273.23
2019-05-20T14:50:10.467Z,99286.81
2019-05-20T14:52:39.336Z,99296.62
2019-05-20T14:55:14.760Z,99294.24
2019-05-20T14:57:43.048Z,99298.97
2019-05-20T15:00:11.604Z,99311.03
2019-05-20T15:02:38.773Z,99319.20
2019-05-20T15:05:07.350Z,99324.03
2019-05-20T15:07:34.532Z,99312.09
2019-05-20T15:10:03.365Z,99313.06
2019-05-20T15:12:31.273Z,99320.78
2019-05-20T15:15:02.328Z,99321.02
2019-05-20T15:17:29.861Z,99315.27
2019-05-20T15:19:57.225Z,99314.16
2019-05-20T15:22:24.712Z,99312.05
2019-05-20T15:24:52.099Z,99316.45
2019-05-20T15:27:19.903Z,99311.01
2019-05-20T15:29:48.251Z,99305.86
2019-05-20T15:32:15.590Z,99296.92
2019-05-20T15:34:42.778Z,99304.36
2019-05-20T15:37:09.968Z,99302.42
2019-05-20T15:39:37.275Z,99308.86
2019-05-20T15:42:05.004Z,99302.20
2019-05-20T15:44:32.284Z,99297.52
2019-05-20T15:46:59.844Z,99300.06
2019-05-20T15:49:27.398Z,99300.95
2019-05-20T15:51:54.645Z,99302.88
2019-05-20T15:54:22.638Z,99303.16
2019-05-20T15:56:51.116Z,99309.84
2019-05-20T15:59:19.071Z,99309.03
2019-05-20T16:01:48.776Z,99315.70
2019-05-20T16:04:16.313Z,99315.51
2019-05-20T16:06:43.820Z,99315.92
2019-05-20T16:09:11.600Z,99305.09
2019-05-20T16:11:50.129Z,99302.70
2019-05-20T16:14:17.582Z,99307.02
2019-05-20T16:16:44.934Z,99299.78
2019-05-20T16:19:14.124Z,99303.31
2019-05-20T16:21:41.416Z,99306.78
2019-05-20T16:24:08.829Z,99306.09
2019-05-20T16:26:36.413Z,99318.95
2019-05-20T16:29:03.834Z,99315.13
2019-05-20T16:31:31.232Z,99311.12
2019-05-20T16:33:59.731Z,99312.26
2019-05-20T16:36:28.281Z,99310.11
2019-05-20T16:38:56.429Z,99311.57
2019-05-20T16:41:32.803Z,99313.25
2019-05-20T16:44:01.248Z,99312.43
2019-05-20T16:46:28.600Z,99316.02
2019-05-20T16:48:55.873Z,99313.95
2019-05-20T16:51:23.669Z,99320.02
2019-05-20T16:53:50.951Z,99319.41
2019-05-20T16:56:18.329Z,99320.92
2019-05-20T16:58:45.660Z,99321.08
2019-05-20T17:01:14.906Z,99318.59
2019-05-20T17:03:42.688Z,99316.44
2019-05-20T17:06:10.385Z,99330.47
2019-05-20T17:08:37.709Z,99326.72
2019-05-20T17:11:05.214Z,99334.69
2019-05-20T17:13:32.558Z,99331.78
2019-05-20T17:16:00.057Z,99335.52
2019-05-20T17:18:27.639Z,99338.93
2019-05-20T17:20:54.943Z,99335.39
2019-05-20T17:23:22.740Z,99341.06
2019-05-20T17:25:50.923Z,99337.87
2019-05-20T17:28:18.623Z,99340.63
2019-05-20T17:30:46.674Z,99343.04
2019-05-20T17:33:14.105Z,99349.51
2019-05-20T17:35:41.586Z,99339.03
2019-05-20T17:38:09.067Z,99345.46
2019-05-20T17:40:36.578Z,99348.69
2019-05-20T17:43:04.624Z,99357.45
2019-05-20T17:45:32.142Z,99359.09
2019-05-20T17:47:59.645Z,99362.95
2019-05-20T17:50:27.110Z,99354.04
2019-05-20T17:52:54.390Z,99354.30
2019-05-20T17:55:22.019Z,99358.19
2019-05-20T17:57:49.332Z,99353.30
2019-05-20T18:00:20.429Z,99364.53
2019-05-20T18:02:47.953Z,99352.58
2019-05-20T18:05:15.853Z,99353.58
2019-05-20T18:07:43.353Z,99353.45
2019-05-20T18:10:11.441Z,99353.70
2019-05-20T18:12:38.711Z,99364.83
2019-05-20T18:15:07.229Z,99362.13
2019-05-20T18:17:34.731Z,99360.09
2019-05-20T18:20:03.279Z,99365.48
2019-05-20T18:22:30.797Z,99352.45
2019-05-20T18:24:58.111Z,99369.76
2019-05-20T18:27:25.652Z,99367.81
2019-05-20T18:29:53.177Z,99367.39
2019-05-20T18:32:20.805Z,99370.38
2019-05-20T18:34:48.303Z,99370.59
2019-05-20T18:37:15.690Z,99379.20
2019-05-20T18:39:43.100Z,99369.77
2019-05-20T18:42:11.155Z,99378.52
2019-05-20T18:44:38.618Z,99371.50
2019-05-20T18:47:08.833Z,99367.95
2019-05-20T18:49:41.132Z,99367.95
2019-05-20T18:52:07.306Z,99358.13
2019-05-20T18:54:34.686Z,99364.11
2019-05-20T18:57:02.088Z,99360.94
2019-05-20T18:59:29.381Z,99358.21
2019-05-20T19:02:05.122Z,99361.22
2019-05-20T19:04:26.088Z,99360.03
2019-05-20T19:07:02.208Z,99366.99
2019-05-20T19:09:29.592Z,99361.22
2019-05-20T19:11:56.870Z,99362.92
2019-05-20T19:14:24.303Z,99364.80
2019-05-20T19:16:51.747Z,99367.42
2019-05-20T19:19:19.196Z,99381.13
2019-05-20T19:21:46.601Z,99376.62
2019-05-20T19:24:14.048Z,99373.55
2019-05-20T19:26:41.478Z,99376.31
2019-05-20T19:29:09.100Z,99378.06
2019-05-20T19:31:37.872Z,99380.30
2019-05-20T19:34:05.401Z,99384.96
2019-05-20T19:36:33.689Z,99382.56
2019-05-20T19:39:01.130Z,99388.33
2019-05-20T19:41:28.414Z,99394.70
2019-05-20T19:43:58.744Z,99395.47
2019-05-20T19:46:26.275Z,99402.98
2019-05-20T19:48:53.444Z,99408.53
2019-05-20T19:51:21.008Z,99417.72
2019-05-20T19:53:48.251Z,99417.41
2019-05-20T19:56:15.553Z,99423.69
2019-05-20T19:58:42.807Z,99424.24
2019-05-20T20:01:10.370Z,99431.13
2019-05-20T20:03:37.650Z,99427.81
2019-05-20T20:06:06.979Z,99422.35
2019-05-20T20:08:34.161Z,99423.98
2019-05-20T20:11:01.681Z,99425.98
2019-05-20T20:13:34.189Z,99420.77
2019-05-20T20:16:00.606Z,99416.02
2019-05-20T20:18:27.951Z,99426.30
2019-05-20T20:20:55.876Z,99426.80
2019-05-20T20:23:23.169Z,99426.55
2019-05-20T20:25:51.077Z,99429.59
2019-05-20T20:28:18.494Z,99427.67
2019-05-20T20:30:52.526Z,99429.91
2019-05-20T20:33:19.862Z,99430.42
2019-05-20T20:35:47.146Z,99431.84
2019-05-20T20:38:14.550Z,99425.47
2019-05-20T20:40:42.149Z,99428.67
2019-05-20T20:43:10.077Z,99421.65
2019-05-20T20:45:37.608Z,99425.02
2019-05-20T20:48:06.584Z,99424.45
2019-05-20T20:50:33.929Z,99415.94
2019-05-20T20:53:01.384Z,99417.62
2019-05-20T20:55:28.909Z,99414.86
2019-05-20T20:57:56.243Z,99419.75
2019-05-20T21:00:23.877Z,99420.88
2019-05-20T21:02:53.545Z,99422.31
2019-05-20T21:05:20.714Z,99429.09
2019-05-20T21:07:51.540Z,99433.33
2019-05-20T21:10:17.580Z,99438.56
2019-05-20T21:12:45.089Z,99438.83
2019-05-20T21:15:12.939Z,99439.61
2019-05-20T21:17:40.116Z,99425.62
2019-05-20T21:20:08.003Z,99432.80
2019-05-20T21:22:35.277Z,99433.62
2019-05-20T21:25:02.985Z,99431.18
2019-05-20T21:27:30.372Z,99417.45
2019-05-20T21:29:57.526Z,99435.05
2019-05-20T21:32:25.257Z,99429.55
2019-05-20T21:34:52.897Z,99430.10
2019-05-20T21:37:20.200Z,99433.16
2019-05-20T21:39:51.243Z,99429.85
2019-05-20T21:42:19.153Z,99427.34
2019-05-20T21:44:48.118Z,99427.44
2019-05-20T21:47:16.133Z,99432.39
2019-05-20T21:49:44.542Z,99442.89
2019-05-20T21:52:17.461Z,99443.95
2019-05-20T21:54:44.764Z,99438.11
2019-05-20T21:57:12.468Z,99438.71
2019-05-20T21:59:40.521Z,99444.70
2019-05-20T22:02:08.808Z,99444.22
2019-05-20T22:04:36.579Z,99446.63
2019-05-20T22:07:04.221Z,99438.72
2019-05-20T22:09:31.897Z,99439.75
2019-05-20T22:12:00.363Z,99437.30
2019-05-20T22:14:28.168Z,99435.92
2019-05-20T22:16:57.957Z,99434.23
2019-05-20T22:19:27.439Z,99430.66
2019-05-20T22:22:13.805Z,99424.89
2019-05-20T22:24:43.913Z,99429.34
2019-05-20T22:27:11.269Z,99429.50
2019-05-20T22:29:39.941Z,99433.42
2019-05-20T22:32:08.907Z,99433.77
2019-05-20T22:34:37.674Z,99432.09
2019-05-20T22:37:07.012Z,99430.66
2019-05-20T22:39:35.106Z,99421.85
2019-05-20T22:42:09.807Z,99430.11
2019-05-20T22:44:38.516Z,99426.28
2019-05-20T22:47:06.635Z,99428.53
2019-05-20T22:49:34.224Z,99426.41
2019-05-20T22:52:02.049Z,99423.32
2019-05-20T22:54:29.340Z,99419.19
2019-05-20T22:56:56.916Z,99426.38
2019-05-20T22:59:24.090Z,99423.06
2019-05-20T23:01:51.549Z,99422.25
2019-05-20T23:04:18.988Z,99422.03
2019-05-20T23:06:46.562Z,99419.58
2019-05-20T23:09:14.970Z,99422.89
2019-05-20T23:11:42.492Z,99422.59
2019-05-20T23:14:10.168Z,99422.63
2019-05-20T23:16:37.423Z,99412.75
2019-05-20T23:19:04.729Z,99421.52
2019-05-20T23:21:31.997Z,99414.38
2019-05-20T23:23:59.519Z,99414.68
2019-05-20T23:26:27.382Z,99412.23
2019-05-20T23:28:54.937Z,99413.81
2019-05-20T23:31:22.336Z,99411.72
2019-05-20T23:33:49.870Z,99406.22
2019-05-20T23:36:17.446Z,99410.60
2019-05-20T23:38:45.118Z,99404.83
2019-05-20T23:41:13.046Z,99404.06
2019-05-20T23:43:40.210Z,99400.75
2019-05-20T23:46:07.928Z,99407.63
2019-05-20T23:48:35.879Z,99406.30
2019-05-20T23:51:03.341Z,99412.06
2019-05-20T23:53:30.909Z,99407.37
2019-05-20T23:55:58.155Z,99407.67
2019-05-20T23:58:25.531Z,99411.25
